sensor_id;sensor_type;location;lat;lon;timestamp;pressure;altitude;pressure_sealevel;temperature;humidity
13015;BME280;6573;57.696;11.950;2023-03-03T00:01:07;102117.19;;;5.91;100.00
13015;BME280;6573;57.696;11.950;2023-03-03T00:03:36;102083.72;;;5.81;100.00
13015;BME280;6573;57.696;11.950;2023-03-03T00:06:08;102097.84;;;5.86;100.00
13015;BME280;6573;57.696;11.950;2023-03-03T00:08:39;102102.00;;;5.59;100.00
13015;BME280;6573;57.696;11.950;2023-03-03T00:11:09;102113.88;;;5.73;100.00
13015;BME280;6573;57.696;11.950;2023-03-03T00:13:45;102109.59;;;5.75;100.00
13015;BME280;6573;57.696;11.950;2023-03-03T00:16:20;102048.78;;;5.32;100.00
13015;BME280;6573;57.696;11.950;2023-03-03T00:18:52;102100.50;;;5.42;100.00
13015;BME280;6573;57.696;11.950;2023-03-03T00:21:26;102099.56;;;5.17;100.00
13015;BME280;6573;57.696;11.950;2023-03-03T00:24:13;102099.66;;;4.98;100.00
13015;BME280;6573;57.696;11.950;2023-03-03T00:26:46;102098.63;;;4.95;100.00
13015;BME280;6573;57.696;11.950;2023-03-03T00:29:29;102091.56;;;4.92;100.00
13015;BME280;6573;57.696;11.950;2023-03-03T00:32:14;102103.81;;;5.15;100.00
13015;BME280;6573;57.696;11.950;2023-03-03T00:34:46;102099.38;;;5.13;100.00
13015;BME280;6573;57.696;11.950;2023-03-03T00:37:32;102104.16;;;5.24;100.00
13015;BME280;6573;57.696;11.950;2023-03-03T00:40:15;102102.78;;;5.12;100.00
13015;BME280;6573;57.696;11.950;2023-03-03T00:42:49;102101.91;;;5.11;100.00
13015;BME280;6573;57.696;11.950;2023-03-03T00:45:26;102110.31;;;5.04;100.00
13015;BME280;6573;57.696;11.950;2023-03-03T00:47:58;102097.59;;;4.91;100.00
13015;BME280;6573;57.696;11.950;2023-03-03T00:50:42;102114.25;;;5.15;100.00
13015;BME280;6573;57.696;11.950;2023-03-03T00:53:13;102085.19;;;5.06;100.00
13015;BME280;6573;57.696;11.950;2023-03-03T00:55:44;102095.81;;;5.11;100.00
13015;BME280;6573;57.696;11.950;2023-03-03T00:58:14;102107.53;;;5.00;100.00
13015;BME280;6573;57.696;11.950;2023-03-03T01:00:42;102120.84;;;4.85;100.00
13015;BME280;6573;57.696;11.950;2023-03-03T01:03:13;102126.38;;;4.72;100.00
13015;BME280;6573;57.696;11.950;2023-03-03T01:05:42;102132.97;;;4.64;100.00
13015;BME280;6573;57.696;11.950;2023-03-03T01:08:10;102128.50;;;4.62;100.00
13015;BME280;6573;57.696;11.950;2023-03-03T01:10:41;102141.50;;;4.60;100.00
13015;BME280;6573;57.696;11.950;2023-03-03T01:13:11;102130.94;;;4.57;100.00
13015;BME280;6573;57.696;11.950;2023-03-03T01:15:42;102124.84;;;4.77;100.00
13015;BME280;6573;57.696;11.950;2023-03-03T01:18:11;102119.88;;;4.83;100.00
13015;BME280;6573;57.696;11.950;2023-03-03T01:20:41;102130.69;;;4.51;100.00
13015;BME280;6573;57.696;11.950;2023-03-03T01:23:10;102123.13;;;4.57;100.00
13015;BME280;6573;57.696;11.950;2023-03-03T01:25:40;102120.25;;;4.72;100.00
13015;BME280;6573;57.696;11.950;2023-03-03T01:28:09;102116.44;;;4.84;100.00
13015;BME280;6573;57.696;11.950;2023-03-03T01:30:37;102104.59;;;4.92;100.00
13015;BME280;6573;57.696;11.950;2023-03-03T01:33:10;102082.91;;;4.71;100.00
13015;BME280;6573;57.696;11.950;2023-03-03T01:35:43;102097.47;;;4.66;100.00
13015;BME280;6573;57.696;11.950;2023-03-03T01:38:12;102102.09;;;4.73;100.00
13015;BME280;6573;57.696;11.950;2023-03-03T01:40:41;102099.16;;;4.66;100.00
13015;BME280;6573;57.696;11.950;2023-03-03T01:43:13;102131.19;;;4.63;100.00
13015;BME280;6573;57.696;11.950;2023-03-03T01:48:45;102132.22;;;4.46;100.00
13015;BME280;6573;57.696;11.950;2023-03-03T01:51:19;102090.38;;;4.43;100.00
13015;BME280;6573;57.696;11.950;2023-03-03T01:53:51;102114.41;;;4.77;100.00
13015;BME280;6573;57.696;11.950;2023-03-03T01:56:20;102118.84;;;4.59;100.00
13015;BME280;6573;57.696;11.950;2023-03-03T01:58:52;102114.66;;;4.42;100.00
13015;BME280;6573;57.696;11.950;2023-03-03T02:01:26;102106.88;;;4.23;100.00
13015;BME280;6573;57.696;11.950;2023-03-03T02:03:57;102086.94;;;4.23;100.00
13015;BME280;6573;57.696;11.950;2023-03-03T02:06:31;102112.38;;;4.29;100.00
13015;BME280;6573;57.696;11.950;2023-03-03T02:09:04;102083.88;;;4.13;100.00
13015;BME280;6573;57.696;11.950;2023-03-03T02:11:37;102104.13;;;4.39;100.00
13015;BME280;6573;57.696;11.950;2023-03-03T02:14:05;102124.53;;;4.30;100.00
13015;BME280;6573;57.696;11.950;2023-03-03T02:16:34;102099.47;;;4.13;100.00
13015;BME280;6573;57.696;11.950;2023-03-03T02:19:10;102103.22;;;3.99;100.00
13015;BME280;6573;57.696;11.950;2023-03-03T02:21:40;102118.56;;;4.12;100.00
13015;BME280;6573;57.696;11.950;2023-03-03T02:24:12;102120.06;;;4.07;100.00
13015;BME280;6573;57.696;11.950;2023-03-03T02:26:45;102121.56;;;4.02;100.00
13015;BME280;6573;57.696;11.950;2023-03-03T02:29:14;102129.63;;;4.08;100.00
13015;BME280;6573;57.696;11.950;2023-03-03T02:31:43;102122.59;;;4.05;100.00
13015;BME280;6573;57.696;11.950;2023-03-03T02:34:11;102132.53;;;4.14;100.00
13015;BME280;6573;57.696;11.950;2023-03-03T02:36:39;102100.31;;;3.92;100.00
13015;BME280;6573;57.696;11.950;2023-03-03T02:39:10;102107.84;;;4.06;100.00
13015;BME280;6573;57.696;11.950;2023-03-03T02:41:45;102107.16;;;4.10;100.00
13015;BME280;6573;57.696;11.950;2023-03-03T02:44:18;102116.91;;;4.14;100.00
13015;BME280;6573;57.696;11.950;2023-03-03T02:46:48;102124.28;;;4.24;100.00
13015;BME280;6573;57.696;11.950;2023-03-03T02:49:22;102061.13;;;4.09;100.00
13015;BME280;6573;57.696;11.950;2023-03-03T02:51:54;102106.28;;;4.49;100.00
13015;BME280;6573;57.696;11.950;2023-03-03T02:54:26;102079.38;;;4.50;100.00
13015;BME280;6573;57.696;11.950;2023-03-03T02:56:57;102092.69;;;4.56;100.00
13015;BME280;6573;57.696;11.950;2023-03-03T02:59:26;102107.91;;;4.47;100.00
13015;BME280;6573;57.696;11.950;2023-03-03T03:01:56;102107.91;;;4.47;100.00
13015;BME280;6573;57.696;11.950;2023-03-03T03:04:26;102084.13;;;4.39;100.00
13015;BME280;6573;57.696;11.950;2023-03-03T03:06:55;102046.16;;;4.24;100.00
13015;BME280;6573;57.696;11.950;2023-03-03T03:09:24;102102.31;;;4.38;100.00
13015;BME280;6573;57.696;11.950;2023-03-03T03:11:54;102112.09;;;4.23;100.00
13015;BME280;6573;57.696;11.950;2023-03-03T03:14:26;102109.06;;;4.33;100.00
13015;BME280;6573;57.696;11.950;2023-03-03T03:16:54;102107.53;;;4.38;100.00
13015;BME280;6573;57.696;11.950;2023-03-03T03:19:23;102068.50;;;4.19;100.00
13015;BME280;6573;57.696;11.950;2023-03-03T03:21:51;102099.16;;;4.45;100.00
13015;BME280;6573;57.696;11.950;2023-03-03T03:24:19;102063.41;;;4.22;100.00
13015;BME280;6573;57.696;11.950;2023-03-03T03:26:48;102096.84;;;4.32;100.00
13015;BME280;6573;57.696;11.950;2023-03-03T03:29:16;102091.63;;;4.32;100.00
13015;BME280;6573;57.696;11.950;2023-03-03T03:31:46;102086.19;;;4.26;100.00
13015;BME280;6573;57.696;11.950;2023-03-03T03:34:14;102085.78;;;4.17;100.00
13015;BME280;6573;57.696;11.950;2023-03-03T03:36:43;102091.25;;;4.23;100.00
13015;BME280;6573;57.696;11.950;2023-03-03T03:39:13;102047.78;;;4.22;100.00
13015;BME280;6573;57.696;11.950;2023-03-03T03:41:41;102069.59;;;4.24;100.00
13015;BME280;6573;57.696;11.950;2023-03-03T03:44:10;102068.94;;;4.09;100.00
13015;BME280;6573;57.696;11.950;2023-03-03T03:46:38;102053.59;;;3.96;100.00
13015;BME280;6573;57.696;11.950;2023-03-03T03:49:08;102070.13;;;3.96;100.00
13015;BME280;6573;57.696;11.950;2023-03-03T03:51:36;102074.28;;;3.92;100.00
13015;BME280;6573;57.696;11.950;2023-03-03T03:54:07;102067.19;;;3.88;100.00
13015;BME280;6573;57.696;11.950;2023-03-03T03:56:35;102072.09;;;3.82;100.00
13015;BME280;6573;57.696;11.950;2023-03-03T03:59:04;102056.78;;;3.88;100.00
13015;BME280;6573;57.696;11.950;2023-03-03T04:01:33;102053.78;;;3.79;100.00
13015;BME280;6573;57.696;11.950;2023-03-03T04:04:01;102067.88;;;3.84;100.00
13015;BME280;6573;57.696;11.950;2023-03-03T04:06:31;102055.94;;;3.89;100.00
13015;BME280;6573;57.696;11.950;2023-03-03T04:09:00;102008.03;;;3.46;100.00
13015;BME280;6573;57.696;11.950;2023-03-03T04:11:28;102065.19;;;3.83;100.00
13015;BME280;6573;57.696;11.950;2023-03-03T04:13:56;102065.94;;;3.80;100.00
13015;BME280;6573;57.696;11.950;2023-03-03T04:16:25;102057.59;;;3.68;100.00
13015;BME280;6573;57.696;11.950;2023-03-03T04:18:54;102070.66;;;3.70;100.00
13015;BME280;6573;57.696;11.950;2023-03-03T04:21:22;102053.75;;;3.60;100.00
13015;BME280;6573;57.696;11.950;2023-03-03T04:23:53;102067.06;;;3.66;100.00
13015;BME280;6573;57.696;11.950;2023-03-03T04:26:21;102022.75;;;3.46;100.00
13015;BME280;6573;57.696;11.950;2023-03-03T04:28:49;102058.69;;;3.54;100.00
13015;BME280;6573;57.696;11.950;2023-03-03T04:31:18;102026.78;;;3.39;100.00
13015;BME280;6573;57.696;11.950;2023-03-03T04:33:47;102058.69;;;3.54;100.00
13015;BME280;6573;57.696;11.950;2023-03-03T04:36:16;102048.16;;;3.51;100.00
13015;BME280;6573;57.696;11.950;2023-03-03T04:38:45;102025.16;;;3.41;100.00
13015;BME280;6573;57.696;11.950;2023-03-03T04:41:15;102037.44;;;3.45;100.00
13015;BME280;6573;57.696;11.950;2023-03-03T04:43:43;102047.84;;;3.45;100.00
13015;BME280;6573;57.696;11.950;2023-03-03T04:46:12;102045.00;;;3.58;100.00
13015;BME280;6573;57.696;11.950;2023-03-03T04:48:40;102041.31;;;3.53;100.00
13015;BME280;6573;57.696;11.950;2023-03-03T04:51:08;102046.34;;;3.50;100.00
13015;BME280;6573;57.696;11.950;2023-03-03T04:53:37;102042.59;;;3.63;100.00
13015;BME280;6573;57.696;11.950;2023-03-03T04:56:05;102039.66;;;3.55;100.00
13015;BME280;6573;57.696;11.950;2023-03-03T04:58:35;102034.88;;;3.64;100.00
13015;BME280;6573;57.696;11.950;2023-03-03T05:01:04;101995.72;;;3.42;100.00
13015;BME280;6573;57.696;11.950;2023-03-03T05:03:33;102027.34;;;3.51;100.00
13015;BME280;6573;57.696;11.950;2023-03-03T05:06:01;102011.59;;;3.48;100.00
13015;BME280;6573;57.696;11.950;2023-03-03T05:08:29;101994.69;;;3.39;100.00
13015;BME280;6573;57.696;11.950;2023-03-03T05:10:58;102012.78;;;3.55;100.00
13015;BME280;6573;57.696;11.950;2023-03-03T05:13:27;101999.97;;;3.59;100.00
13015;BME280;6573;57.696;11.950;2023-03-03T05:15:57;102019.78;;;3.57;100.00
13015;BME280;6573;57.696;11.950;2023-03-03T05:18:26;102002.22;;;3.52;100.00
13015;BME280;6573;57.696;11.950;2023-03-03T05:20:54;102001.47;;;3.54;100.00
13015;BME280;6573;57.696;11.950;2023-03-03T05:23:22;102012.13;;;3.60;100.00
13015;BME280;6573;57.696;11.950;2023-03-03T05:25:51;102010.38;;;3.59;100.00
13015;BME280;6573;57.696;11.950;2023-03-03T05:28:19;101985.44;;;3.45;100.00
13015;BME280;6573;57.696;11.950;2023-03-03T05:30:48;101998.66;;;3.50;100.00
13015;BME280;6573;57.696;11.950;2023-03-03T05:33:18;102000.56;;;3.54;100.00
13015;BME280;6573;57.696;11.950;2023-03-03T05:35:46;102014.38;;;3.53;100.00
13015;BME280;6573;57.696;11.950;2023-03-03T05:38:14;102018.59;;;3.49;100.00
13015;BME280;6573;57.696;11.950;2023-03-03T05:40:43;102016.78;;;3.48;100.00
13015;BME280;6573;57.696;11.950;2023-03-03T05:43:11;102008.19;;;3.49;100.00
13015;BME280;6573;57.696;11.950;2023-03-03T05:45:41;101997.63;;;3.46;100.00
13015;BME280;6573;57.696;11.950;2023-03-03T05:48:10;102002.69;;;3.43;100.00
13015;BME280;6573;57.696;11.950;2023-03-03T05:50:40;101982.69;;;3.23;100.00
13015;BME280;6573;57.696;11.950;2023-03-03T05:53:08;102014.53;;;3.37;100.00
13015;BME280;6573;57.696;11.950;2023-03-03T05:55:37;102007.34;;;3.31;100.00
13015;BME280;6573;57.696;11.950;2023-03-03T05:58:09;101995.53;;;3.01;100.00
13015;BME280;6573;57.696;11.950;2023-03-03T06:00:37;102017.72;;;3.12;100.00
13015;BME280;6573;57.696;11.950;2023-03-03T06:03:06;102008.69;;;3.23;100.00
13015;BME280;6573;57.696;11.950;2023-03-03T06:05:34;102022.94;;;3.31;100.00
13015;BME280;6573;57.696;11.950;2023-03-03T06:08:04;102011.50;;;3.27;100.00
13015;BME280;6573;57.696;11.950;2023-03-03T06:10:32;102020.00;;;3.23;100.00
13015;BME280;6573;57.696;11.950;2023-03-03T06:13:03;102014.34;;;3.32;100.00
13015;BME280;6573;57.696;11.950;2023-03-03T06:15:32;102004.34;;;3.41;100.00
13015;BME280;6573;57.696;11.950;2023-03-03T06:18:01;101995.59;;;3.39;100.00
13015;BME280;6573;57.696;11.950;2023-03-03T06:20:29;101997.50;;;3.43;100.00
13015;BME280;6573;57.696;11.950;2023-03-03T06:22:59;102000.06;;;3.62;100.00
13015;BME280;6573;57.696;11.950;2023-03-03T06:25:28;101993.91;;;3.79;100.00
13015;BME280;6573;57.696;11.950;2023-03-03T06:27:57;101976.88;;;3.87;100.00
13015;BME280;6573;57.696;11.950;2023-03-03T06:30:25;101983.84;;;4.08;100.00
13015;BME280;6573;57.696;11.950;2023-03-03T06:32:54;101986.38;;;4.06;100.00
13015;BME280;6573;57.696;11.950;2023-03-03T06:35:22;101980.56;;;3.92;100.00
13015;BME280;6573;57.696;11.950;2023-03-03T06:37:51;101992.25;;;3.81;100.00
13015;BME280;6573;57.696;11.950;2023-03-03T06:40:19;101965.72;;;3.69;100.00
13015;BME280;6573;57.696;11.950;2023-03-03T06:42:49;101993.72;;;3.96;100.00
13015;BME280;6573;57.696;11.950;2023-03-03T06:45:17;101982.63;;;4.00;100.00
13015;BME280;6573;57.696;11.950;2023-03-03T06:47:46;101981.50;;;4.14;100.00
13015;BME280;6573;57.696;11.950;2023-03-03T06:50:17;101976.06;;;4.30;100.00
13015;BME280;6573;57.696;11.950;2023-03-03T06:52:47;101969.78;;;4.25;100.00
13015;BME280;6573;57.696;11.950;2023-03-03T06:55:20;101982.31;;;4.13;100.00
13015;BME280;6573;57.696;11.950;2023-03-03T06:57:51;101975.88;;;4.05;100.00
13015;BME280;6573;57.696;11.950;2023-03-03T07:00:24;101983.03;;;4.09;100.00
13015;BME280;6573;57.696;11.950;2023-03-03T07:02:59;101953.97;;;4.00;100.00
13015;BME280;6573;57.696;11.950;2023-03-03T07:05:28;101984.38;;;4.42;100.00
13015;BME280;6573;57.696;11.950;2023-03-03T07:07:56;101982.22;;;4.32;100.00
13015;BME280;6573;57.696;11.950;2023-03-03T07:10:26;101980.78;;;4.18;100.00
13015;BME280;6573;57.696;11.950;2023-03-03T07:13:01;101981.38;;;4.11;100.00
13015;BME280;6573;57.696;11.950;2023-03-03T07:15:34;101975.50;;;3.96;100.00
13015;BME280;6573;57.696;11.950;2023-03-03T07:18:08;101984.78;;;4.10;100.00
13015;BME280;6573;57.696;11.950;2023-03-03T07:20:48;101986.44;;;4.08;100.00
13015;BME280;6573;57.696;11.950;2023-03-03T07:23:20;101977.31;;;3.97;100.00
13015;BME280;6573;57.696;11.950;2023-03-03T07:25:51;101984.13;;;3.94;100.00
13015;BME280;6573;57.696;11.950;2023-03-03T07:28:23;101973.47;;;3.88;100.00
13015;BME280;6573;57.696;11.950;2023-03-03T07:30:53;101978.03;;;4.15;100.00
13015;BME280;6573;57.696;11.950;2023-03-03T07:33:24;101980.06;;;4.22;100.00
13015;BME280;6573;57.696;11.950;2023-03-03T07:35:56;101986.56;;;4.31;100.00
13015;BME280;6573;57.696;11.950;2023-03-03T07:38:36;101977.16;;;4.35;100.00
13015;BME280;6573;57.696;11.950;2023-03-03T07:41:11;101959.75;;;4.34;100.00
13015;BME280;6573;57.696;11.950;2023-03-03T07:43:47;101963.69;;;4.45;100.00
13015;BME280;6573;57.696;11.950;2023-03-03T07:46:26;101973.47;;;4.50;100.00
13015;BME280;6573;57.696;11.950;2023-03-03T07:48:57;101956.31;;;4.35;100.00
13015;BME280;6573;57.696;11.950;2023-03-03T07:51:27;101973.72;;;4.36;100.00
13015;BME280;6573;57.696;11.950;2023-03-03T07:54:15;101948.31;;;4.30;100.00
13015;BME280;6573;57.696;11.950;2023-03-03T07:56:46;101952.19;;;4.40;100.00
13015;BME280;6573;57.696;11.950;2023-03-03T07:59:20;101949.69;;;4.43;100.00
13015;BME280;6573;57.696;11.950;2023-03-03T08:01:51;101944.97;;;4.55;100.00
13015;BME280;6573;57.696;11.950;2023-03-03T08:04:23;101943.78;;;4.69;100.00
13015;BME280;6573;57.696;11.950;2023-03-03T08:06:53;101939.94;;;4.82;100.00
13015;BME280;6573;57.696;11.950;2023-03-03T08:09:46;101939.47;;;4.92;100.00
13015;BME280;6573;57.696;11.950;2023-03-03T08:15:20;101910.72;;;4.90;100.00
13015;BME280;6573;57.696;11.950;2023-03-03T08:17:51;101936.53;;;5.06;100.00
13015;BME280;6573;57.696;11.950;2023-03-03T08:20:44;101929.56;;;5.05;100.00
13015;BME280;6573;57.696;11.950;2023-03-03T08:23:14;101901.38;;;4.95;100.00
13015;BME280;6573;57.696;11.950;2023-03-03T08:25:43;101912.56;;;5.16;100.00
13015;BME280;6573;57.696;11.950;2023-03-03T08:28:12;101912.41;;;5.36;100.00
13015;BME280;6573;57.696;11.950;2023-03-03T08:30:43;101862.81;;;5.10;100.00
13015;BME280;6573;57.696;11.950;2023-03-03T08:33:13;101912.72;;;5.45;100.00
13015;BME280;6573;57.696;11.950;2023-03-03T08:35:42;101913.34;;;5.38;100.00
13015;BME280;6573;57.696;11.950;2023-03-03T08:38:12;101909.88;;;5.39;100.00
13015;BME280;6573;57.696;11.950;2023-03-03T08:40:41;101892.47;;;5.38;100.00
13015;BME280;6573;57.696;11.950;2023-03-03T08:43:10;101861.09;;;5.11;100.00
13015;BME280;6573;57.696;11.950;2023-03-03T08:45:45;101897.81;;;5.41;100.00
13015;BME280;6573;57.696;11.950;2023-03-03T08:48:14;101888.44;;;5.46;100.00
13015;BME280;6573;57.696;11.950;2023-03-03T08:50:43;101893.03;;;5.29;100.00
13015;BME280;6573;57.696;11.950;2023-03-03T08:53:13;101891.28;;;5.28;100.00
13015;BME280;6573;57.696;11.950;2023-03-03T08:55:42;101821.72;;;5.03;100.00
13015;BME280;6573;57.696;11.950;2023-03-03T08:58:10;101885.69;;;5.43;100.00
13015;BME280;6573;57.696;11.950;2023-03-03T09:00:39;101857.16;;;5.23;100.00
13015;BME280;6573;57.696;11.950;2023-03-03T09:03:09;101869.84;;;5.13;100.00
13015;BME280;6573;57.696;11.950;2023-03-03T09:05:39;101868.97;;;5.12;100.00
13015;BME280;6573;57.696;11.950;2023-03-03T09:08:08;101853.00;;;5.03;100.00
13015;BME280;6573;57.696;11.950;2023-03-03T09:10:36;101859.06;;;5.28;100.00
13015;BME280;6573;57.696;11.950;2023-03-03T09:13:10;101844.25;;;5.27;100.00
13015;BME280;6573;57.696;11.950;2023-03-03T09:15:39;101833.97;;;5.31;100.00
13015;BME280;6573;57.696;11.950;2023-03-03T09:18:18;101849.06;;;5.40;100.00
13015;BME280;6573;57.696;11.950;2023-03-03T09:20:49;101835.06;;;5.38;100.00
13015;BME280;6573;57.696;11.950;2023-03-03T09:23:29;101842.28;;;5.45;100.00
13015;BME280;6573;57.696;11.950;2023-03-03T09:26:18;101817.63;;;5.37;100.00
13015;BME280;6573;57.696;11.950;2023-03-03T09:28:50;101827.03;;;5.57;100.00
13015;BME280;6573;57.696;11.950;2023-03-03T09:31:24;101839.13;;;5.80;100.00
13015;BME280;6573;57.696;11.950;2023-03-03T09:33:54;101835.38;;;5.97;100.00
13015;BME280;6573;57.696;11.950;2023-03-03T09:36:27;101829.22;;;5.95;100.00
13015;BME280;6573;57.696;11.950;2023-03-03T09:38:56;101824.91;;;5.97;100.00
13015;BME280;6573;57.696;11.950;2023-03-03T09:44:45;101818.50;;;6.14;100.00
13015;BME280;6573;57.696;11.950;2023-03-03T09:47:30;101814.97;;;6.12;100.00
13015;BME280;6573;57.696;11.950;2023-03-03T09:50:11;101814.03;;;6.10;100.00
13015;BME280;6573;57.696;11.950;2023-03-03T09:52:48;101819.78;;;6.28;100.00
13015;BME280;6573;57.696;11.950;2023-03-03T09:55:31;101822.72;;;6.37;100.00
13015;BME280;6573;57.696;11.950;2023-03-03T09:58:15;101805.13;;;6.33;100.00
13015;BME280;6573;57.696;11.950;2023-03-03T10:00:55;101815.59;;;6.33;100.00
13015;BME280;6573;57.696;11.950;2023-03-03T10:06:31;101786.13;;;6.37;100.00
13015;BME280;6573;57.696;11.950;2023-03-03T10:09:26;101795.50;;;6.61;100.00
13015;BME280;6573;57.696;11.950;2023-03-03T10:12:04;101785.66;;;6.82;100.00
13015;BME280;6573;57.696;11.950;2023-03-03T10:14:47;101774.91;;;6.73;100.00
13015;BME280;6573;57.696;11.950;2023-03-03T10:17:35;101778.63;;;6.79;100.00
13015;BME280;6573;57.696;11.950;2023-03-03T10:20:29;101773.59;;;6.87;100.00
13015;BME280;6573;57.696;11.950;2023-03-03T10:23:20;101782.47;;;6.92;100.00
13015;BME280;6573;57.696;11.950;2023-03-03T10:26:02;101781.09;;;7.06;100.00
13015;BME280;6573;57.696;11.950;2023-03-03T10:28:49;101790.09;;;7.17;100.00
13015;BME280;6573;57.696;11.950;2023-03-03T10:31:30;101762.16;;;7.16;100.00
13015;BME280;6573;57.696;11.950;2023-03-03T10:34:06;101758.94;;;7.26;100.00
13015;BME280;6573;57.696;11.950;2023-03-03T10:36:48;101778.19;;;7.28;100.00
13015;BME280;6573;57.696;11.950;2023-03-03T10:39:40;101764.00;;;7.20;100.00
13015;BME280;6573;57.696;11.950;2023-03-03T10:42:37;101763.91;;;7.17;100.00
13015;BME280;6573;57.696;11.950;2023-03-03T10:45:30;101749.91;;;7.15;100.00
13015;BME280;6573;57.696;11.950;2023-03-03T10:48:27;101746.38;;;7.13;100.00
13015;BME280;6573;57.696;11.950;2023-03-03T10:51:05;101754.25;;;7.13;100.00
13015;BME280;6573;57.696;11.950;2023-03-03T10:53:43;101751.84;;;7.22;100.00
13015;BME280;6573;57.696;11.950;2023-03-03T10:56:30;101741.47;;;7.25;100.00
13015;BME280;6573;57.696;11.950;2023-03-03T10:59:35;101723.75;;;7.15;100.00
13015;BME280;6573;57.696;11.950;2023-03-03T11:02:16;101721.50;;;7.29;100.00
13015;BME280;6573;57.696;11.950;2023-03-03T11:04:58;101728.13;;;7.50;100.00
13015;BME280;6573;57.696;11.950;2023-03-03T11:07:34;101719.44;;;7.51;100.00
13015;BME280;6573;57.696;11.950;2023-03-03T11:10:17;101714.56;;;7.66;100.00
13015;BME280;6573;57.696;11.950;2023-03-03T11:12:54;101711.38;;;7.79;100.00
13015;BME280;6573;57.696;11.950;2023-03-03T11:18:34;101704.56;;;7.88;100.00
13015;BME280;6573;57.696;11.950;2023-03-03T11:21:12;101697.53;;;7.87;100.00
13015;BME280;6573;57.696;11.950;2023-03-03T11:24:12;101685.22;;;7.81;100.00
13015;BME280;6573;57.696;11.950;2023-03-03T11:27:14;101673.28;;;7.94;100.00
13015;BME280;6573;57.696;11.950;2023-03-03T11:30:23;101677.19;;;8.14;100.00
13015;BME280;6573;57.696;11.950;2023-03-03T11:33:00;101671.13;;;8.16;100.00
13015;BME280;6573;57.696;11.950;2023-03-03T11:35:37;101670.25;;;8.16;100.00
13015;BME280;6573;57.696;11.950;2023-03-03T11:38:20;101674.88;;;8.27;100.00
13015;BME280;6573;57.696;11.950;2023-03-03T11:40:54;101660.28;;;8.40;100.00
13015;BME280;6573;57.696;11.950;2023-03-03T11:43:28;101664.13;;;8.57;100.00
13015;BME280;6573;57.696;11.950;2023-03-03T11:46:06;101666.75;;;8.59;100.00
13015;BME280;6573;57.696;11.950;2023-03-03T11:48:42;101641.41;;;8.59;100.00
13015;BME280;6573;57.696;11.950;2023-03-03T11:51:16;101642.28;;;8.58;100.00
13015;BME280;6573;57.696;11.950;2023-03-03T11:53:57;101611.50;;;8.48;100.00
13015;BME280;6573;57.696;11.950;2023-03-03T11:56:29;101632.78;;;8.63;100.00
13015;BME280;6573;57.696;11.950;2023-03-03T11:59:15;101632.78;;;8.63;100.00
13015;BME280;6573;57.696;11.950;2023-03-03T12:01:52;101610.91;;;8.63;100.00
13015;BME280;6573;57.696;11.950;2023-03-03T12:04:26;101622.63;;;8.84;100.00
13015;BME280;6573;57.696;11.950;2023-03-03T12:07:12;101608.66;;;8.85;100.00
13015;BME280;6573;57.696;11.950;2023-03-03T12:09:59;101598.97;;;8.81;100.00
13015;BME280;6573;57.696;11.950;2023-03-03T12:12:33;101597.34;;;8.88;100.00
13015;BME280;6573;57.696;11.950;2023-03-03T12:15:08;101598.56;;;9.09;100.00
13015;BME280;6573;57.696;11.950;2023-03-03T12:18:01;101588.91;;;9.08;100.00
13015;BME280;6573;57.696;11.950;2023-03-03T12:20:41;101579.41;;;9.17;100.00
13015;BME280;6573;57.696;11.950;2023-03-03T12:23:28;101581.25;;;9.24;100.00
13015;BME280;6573;57.696;11.950;2023-03-03T12:26:06;101562.84;;;9.19;100.00
13015;BME280;6573;57.696;11.950;2023-03-03T12:28:41;101565.47;;;9.21;100.00
13015;BME280;6573;57.696;11.950;2023-03-03T12:31:25;101546.28;;;9.25;100.00
13015;BME280;6573;57.696;11.950;2023-03-03T12:34:08;101547.97;;;9.20;100.00
13015;BME280;6573;57.696;11.950;2023-03-03T12:37:05;101532.91;;;9.06;100.00
13015;BME280;6573;57.696;11.950;2023-03-03T12:39:44;101509.28;;;9.06;100.00
13015;BME280;6573;57.696;11.950;2023-03-03T12:42:24;101521.94;;;9.35;100.00
13015;BME280;6573;57.696;11.950;2023-03-03T12:45:04;101500.88;;;9.32;100.00
13015;BME280;6573;57.696;11.950;2023-03-03T12:47:38;101509.59;;;9.31;100.00
13015;BME280;6573;57.696;11.950;2023-03-03T12:50:23;101500.16;;;9.43;100.00
13015;BME280;6573;57.696;11.950;2023-03-03T12:53:00;101487.94;;;9.48;100.00
13015;BME280;6573;57.696;11.950;2023-03-03T12:55:44;101487.16;;;9.55;100.00
13015;BME280;6573;57.696;11.950;2023-03-03T12:58:24;101467.75;;;9.43;100.00
13015;BME280;6573;57.696;11.950;2023-03-03T13:01:04;101420.03;;;9.06;100.00
13015;BME280;6573;57.696;11.950;2023-03-03T13:03:39;101485.00;;;9.23;100.00
13015;BME280;6573;57.696;11.950;2023-03-03T13:06:27;101470.31;;;9.37;100.00
13015;BME280;6573;57.696;11.950;2023-03-03T13:09:14;101434.22;;;9.21;100.00
13015;BME280;6573;57.696;11.950;2023-03-03T13:11:54;101441.25;;;9.22;100.00
13015;BME280;6573;57.696;11.950;2023-03-03T13:14:33;101453.72;;;9.41;100.00
13015;BME280;6573;57.696;11.950;2023-03-03T13:17:14;101429.09;;;9.30;100.00
13015;BME280;6573;57.696;11.950;2023-03-03T13:19:50;101438.84;;;9.40;100.00
13015;BME280;6573;57.696;11.950;2023-03-03T13:22:31;101450.81;;;9.18;100.00
13015;BME280;6573;57.696;11.950;2023-03-03T13:25:08;101461.91;;;8.97;100.00
13015;BME280;6573;57.696;11.950;2023-03-03T13:27:45;101449.75;;;9.05;100.00
13015;BME280;6573;57.696;11.950;2023-03-03T13:30:19;101448.00;;;9.04;100.00
13015;BME280;6573;57.696;11.950;2023-03-03T13:32:53;101437.63;;;9.13;100.00
13015;BME280;6573;57.696;11.950;2023-03-03T13:35:32;101441.16;;;9.16;100.00
13015;BME280;6573;57.696;11.950;2023-03-03T13:38:09;101452.50;;;9.13;100.00
13015;BME280;6573;57.696;11.950;2023-03-03T13:40:42;101456.78;;;9.06;100.00